sensor_id;sensor_type;location;lat;lon;timestamp;P1;durP1;ratioP1;P2;durP2;ratioP2
75744;SDS011;64359;51.366;-0.222;2023-03-14T00:00:36;3.50;;;1.70;;
75744;SDS011;64359;51.366;-0.222;2023-03-14T00:01:39;3.70;;;1.60;;
75744;SDS011;64359;51.366;-0.222;2023-03-14T00:02:41;2.50;;;1.50;;
75744;SDS011;64359;51.366;-0.222;2023-03-14T00:03:43;3.00;;;1.10;;
75744;SDS011;64359;51.366;-0.222;2023-03-14T00:04:45;3.30;;;1.20;;
75744;SDS011;64359;51.366;-0.222;2023-03-14T00:05:48;2.20;;;1.40;;
75744;SDS011;64359;51.366;-0.222;2023-03-14T00:06:50;3.80;;;1.60;;
75744;SDS011;64359;51.366;-0.222;2023-03-14T00:07:52;2.30;;;1.30;;
75744;SDS011;64359;51.366;-0.222;2023-03-14T00:08:55;2.70;;;1.30;;
75744;SDS011;64359;51.366;-0.222;2023-03-14T00:09:57;3.20;;;1.40;;
75744;SDS011;64359;51.366;-0.222;2023-03-14T00:11:04;2.20;;;1.30;;
75744;SDS011;64359;51.366;-0.222;2023-03-14T00:12:07;2.90;;;1.20;;
75744;SDS011;64359;51.366;-0.222;2023-03-14T00:13:09;2.70;;;1.30;;
75744;SDS011;64359;51.366;-0.222;2023-03-14T00:14:12;3.50;;;1.60;;
75744;SDS011;64359;51.366;-0.222;2023-03-14T00:15:16;3.60;;;1.70;;
75744;SDS011;64359;51.366;-0.222;2023-03-14T00:16:18;3.90;;;1.30;;
75744;SDS011;64359;51.366;-0.222;2023-03-14T00:17:21;2.40;;;1.30;;
75744;SDS011;64359;51.366;-0.222;2023-03-14T00:18:23;2.90;;;1.20;;
75744;SDS011;64359;51.366;-0.222;2023-03-14T00:19:26;3.60;;;1.30;;
75744;SDS011;64359;51.366;-0.222;2023-03-14T00:20:28;2.30;;;1.10;;
75744;SDS011;64359;51.366;-0.222;2023-03-14T00:21:30;3.40;;;1.60;;
75744;SDS011;64359;51.366;-0.222;2023-03-14T00:22:32;4.90;;;1.60;;
75744;SDS011;64359;51.366;-0.222;2023-03-14T00:23:35;3.20;;;1.10;;
75744;SDS011;64359;51.366;-0.222;2023-03-14T00:24:39;2.90;;;1.30;;
75744;SDS011;64359;51.366;-0.222;2023-03-14T00:25:41;3.00;;;1.60;;
75744;SDS011;64359;51.366;-0.222;2023-03-14T00:26:43;2.60;;;1.30;;
75744;SDS011;64359;51.366;-0.222;2023-03-14T00:27:45;3.80;;;1.70;;
75744;SDS011;64359;51.366;-0.222;2023-03-14T00:28:50;2.60;;;1.20;;
75744;SDS011;64359;51.366;-0.222;2023-03-14T00:29:53;3.00;;;1.20;;
75744;SDS011;64359;51.366;-0.222;2023-03-14T00:30:56;3.10;;;1.90;;
75744;SDS011;64359;51.366;-0.222;2023-03-14T00:31:58;1.80;;;1.10;;
75744;SDS011;64359;51.366;-0.222;2023-03-14T00:33:00;2.20;;;1.10;;
75744;SDS011;64359;51.366;-0.222;2023-03-14T00:34:03;3.20;;;2.10;;
75744;SDS011;64359;51.366;-0.222;2023-03-14T00:35:05;2.30;;;1.10;;
75744;SDS011;64359;51.366;-0.222;2023-03-14T00:36:10;2.40;;;1.80;;
75744;SDS011;64359;51.366;-0.222;2023-03-14T00:37:14;4.60;;;1.60;;
75744;SDS011;64359;51.366;-0.222;2023-03-14T00:38:16;3.30;;;1.40;;
75744;SDS011;64359;51.366;-0.222;2023-03-14T00:39:19;1.60;;;1.00;;
75744;SDS011;64359;51.366;-0.222;2023-03-14T00:40:21;2.30;;;1.20;;
75744;SDS011;64359;51.366;-0.222;2023-03-14T00:41:23;2.10;;;1.30;;
75744;SDS011;64359;51.366;-0.222;2023-03-14T00:42:26;4.20;;;1.80;;
75744;SDS011;64359;51.366;-0.222;2023-03-14T00:43:28;2.90;;;1.50;;
75744;SDS011;64359;51.366;-0.222;2023-03-14T00:44:30;2.90;;;1.30;;
75744;SDS011;64359;51.366;-0.222;2023-03-14T00:45:33;3.30;;;1.60;;
75744;SDS011;64359;51.366;-0.222;2023-03-14T00:46:35;2.00;;;1.00;;
75744;SDS011;64359;51.366;-0.222;2023-03-14T00:47:38;3.00;;;1.70;;
75744;SDS011;64359;51.366;-0.222;2023-03-14T00:48:40;3.30;;;1.70;;
75744;SDS011;64359;51.366;-0.222;2023-03-14T00:49:42;2.50;;;1.40;;
75744;SDS011;64359;51.366;-0.222;2023-03-14T00:50:45;3.40;;;1.70;;
75744;SDS011;64359;51.366;-0.222;2023-03-14T00:51:47;3.40;;;1.50;;
75744;SDS011;64359;51.366;-0.222;2023-03-14T00:52:50;2.70;;;1.00;;
75744;SDS011;64359;51.366;-0.222;2023-03-14T00:53:52;3.80;;;1.40;;
75744;SDS011;64359;51.366;-0.222;2023-03-14T00:54:54;1.90;;;1.10;;
75744;SDS011;64359;51.366;-0.222;2023-03-14T00:55:57;2.10;;;1.20;;
75744;SDS011;64359;51.366;-0.222;2023-03-14T00:57:03;2.00;;;1.50;;
75744;SDS011;64359;51.366;-0.222;2023-03-14T00:58:05;2.20;;;0.90;;
75744;SDS011;64359;51.366;-0.222;2023-03-14T00:59:07;1.80;;;1.40;;
75744;SDS011;64359;51.366;-0.222;2023-03-14T01:00:11;2.70;;;1.70;;
75744;SDS011;64359;51.366;-0.222;2023-03-14T01:01:15;2.40;;;1.70;;
75744;SDS011;64359;51.366;-0.222;2023-03-14T01:02:19;3.40;;;1.80;;
75744;SDS011;64359;51.366;-0.222;2023-03-14T01:03:22;2.90;;;1.30;;
75744;SDS011;64359;51.366;-0.222;2023-03-14T01:04:24;1.60;;;1.20;;
75744;SDS011;64359;51.366;-0.222;2023-03-14T01:05:27;2.60;;;1.30;;
75744;SDS011;64359;51.366;-0.222;2023-03-14T01:06:30;3.20;;;1.10;;
75744;SDS011;64359;51.366;-0.222;2023-03-14T01:07:32;2.80;;;1.10;;
75744;SDS011;64359;51.366;-0.222;2023-03-14T01:08:34;3.60;;;1.50;;
75744;SDS011;64359;51.366;-0.222;2023-03-14T01:09:37;1.40;;;1.00;;
75744;SDS011;64359;51.366;-0.222;2023-03-14T01:10:40;2.50;;;1.20;;
75744;SDS011;64359;51.366;-0.222;2023-03-14T01:12:47;2.60;;;0.90;;
75744;SDS011;64359;51.366;-0.222;2023-03-14T01:13:49;2.00;;;1.40;;
75744;SDS011;64359;51.366;-0.222;2023-03-14T01:14:52;2.40;;;1.10;;
75744;SDS011;64359;51.366;-0.222;2023-03-14T01:15:54;2.60;;;1.30;;
75744;SDS011;64359;51.366;-0.222;2023-03-14T01:17:01;2.90;;;1.40;;
75744;SDS011;64359;51.366;-0.222;2023-03-14T01:18:03;1.50;;;1.10;;
75744;SDS011;64359;51.366;-0.222;2023-03-14T01:19:06;2.50;;;0.90;;
75744;SDS011;64359;51.366;-0.222;2023-03-14T01:20:10;2.10;;;1.20;;
75744;SDS011;64359;51.366;-0.222;2023-03-14T01:21:15;2.70;;;1.80;;
75744;SDS011;64359;51.366;-0.222;2023-03-14T01:22:18;2.70;;;1.70;;
75744;SDS011;64359;51.366;-0.222;2023-03-14T01:24:23;2.70;;;1.00;;
75744;SDS011;64359;51.366;-0.222;2023-03-14T01:25:25;1.50;;;0.80;;
75744;SDS011;64359;51.366;-0.222;2023-03-14T01:26:29;3.40;;;1.50;;
75744;SDS011;64359;51.366;-0.222;2023-03-14T01:27:33;2.30;;;1.20;;
75744;SDS011;64359;51.366;-0.222;2023-03-14T01:28:35;3.40;;;1.30;;
75744;SDS011;64359;51.366;-0.222;2023-03-14T01:29:37;2.20;;;1.30;;
75744;SDS011;64359;51.366;-0.222;2023-03-14T01:30:39;2.80;;;1.40;;
75744;SDS011;64359;51.366;-0.222;2023-03-14T01:31:42;2.00;;;1.10;;
75744;SDS011;64359;51.366;-0.222;2023-03-14T01:32:44;3.10;;;0.90;;
75744;SDS011;64359;51.366;-0.222;2023-03-14T01:33:46;2.00;;;1.30;;
75744;SDS011;64359;51.366;-0.222;2023-03-14T01:34:49;2.30;;;1.00;;
75744;SDS011;64359;51.366;-0.222;2023-03-14T01:35:51;3.70;;;1.10;;
75744;SDS011;64359;51.366;-0.222;2023-03-14T01:36:53;2.20;;;1.40;;
75744;SDS011;64359;51.366;-0.222;2023-03-14T01:37:55;1.90;;;0.90;;
75744;SDS011;64359;51.366;-0.222;2023-03-14T01:38:58;1.80;;;1.40;;
75744;SDS011;64359;51.366;-0.222;2023-03-14T01:40:00;3.60;;;1.50;;
75744;SDS011;64359;51.366;-0.222;2023-03-14T01:41:05;2.30;;;1.40;;
75744;SDS011;64359;51.366;-0.222;2023-03-14T01:42:08;1.00;;;1.00;;
75744;SDS011;64359;51.366;-0.222;2023-03-14T01:43:15;2.40;;;1.00;;
75744;SDS011;64359;51.366;-0.222;2023-03-14T01:44:18;3.10;;;1.60;;
75744;SDS011;64359;51.366;-0.222;2023-03-14T01:46:58;1.80;;;1.10;;
75744;SDS011;64359;51.366;-0.222;2023-03-14T01:48:00;2.50;;;1.30;;
75744;SDS011;64359;51.366;-0.222;2023-03-14T01:49:04;2.00;;;1.20;;
75744;SDS011;64359;51.366;-0.222;2023-03-14T01:50:17;2.40;;;1.10;;
75744;SDS011;64359;51.366;-0.222;2023-03-14T01:51:20;2.00;;;0.80;;
75744;SDS011;64359;51.366;-0.222;2023-03-14T01:52:27;1.80;;;0.90;;
75744;SDS011;64359;51.366;-0.222;2023-03-14T01:53:34;2.40;;;1.50;;
75744;SDS011;64359;51.366;-0.222;2023-03-14T01:54:38;1.50;;;0.90;;
75744;SDS011;64359;51.366;-0.222;2023-03-14T01:55:42;2.40;;;1.00;;
75744;SDS011;64359;51.366;-0.222;2023-03-14T01:56:46;1.80;;;1.20;;
75744;SDS011;64359;51.366;-0.222;2023-03-14T01:57:54;2.30;;;1.20;;
75744;SDS011;64359;51.366;-0.222;2023-03-14T01:59:00;1.60;;;1.40;;
75744;SDS011;64359;51.366;-0.222;2023-03-14T02:00:08;1.80;;;1.10;;
75744;SDS011;64359;51.366;-0.222;2023-03-14T02:01:14;1.10;;;0.60;;
75744;SDS011;64359;51.366;-0.222;2023-03-14T02:02:17;1.50;;;1.00;;
75744;SDS011;64359;51.366;-0.222;2023-03-14T02:03:20;1.50;;;1.20;;
75744;SDS011;64359;51.366;-0.222;2023-03-14T02:04:26;1.80;;;1.20;;
75744;SDS011;64359;51.366;-0.222;2023-03-14T02:05:34;1.80;;;0.80;;
75744;SDS011;64359;51.366;-0.222;2023-03-14T02:06:42;1.70;;;1.10;;
75744;SDS011;64359;51.366;-0.222;2023-03-14T02:08:51;1.70;;;1.20;;
75744;SDS011;64359;51.366;-0.222;2023-03-14T02:09:53;2.10;;;1.00;;
75744;SDS011;64359;51.366;-0.222;2023-03-14T02:10:57;1.60;;;1.00;;
75744;SDS011;64359;51.366;-0.222;2023-03-14T02:11:59;1.50;;;0.90;;
75744;SDS011;64359;51.366;-0.222;2023-03-14T02:13:03;1.20;;;0.90;;
75744;SDS011;64359;51.366;-0.222;2023-03-14T02:14:06;1.40;;;0.80;;
75744;SDS011;64359;51.366;-0.222;2023-03-14T02:15:15;1.00;;;0.60;;
75744;SDS011;64359;51.366;-0.222;2023-03-14T02:16:18;2.00;;;1.00;;
75744;SDS011;64359;51.366;-0.222;2023-03-14T02:17:20;1.50;;;0.70;;
75744;SDS011;64359;51.366;-0.222;2023-03-14T02:18:23;1.10;;;0.80;;
75744;SDS011;64359;51.366;-0.222;2023-03-14T02:19:28;0.90;;;0.90;;
75744;SDS011;64359;51.366;-0.222;2023-03-14T02:20:47;1.00;;;0.60;;
75744;SDS011;64359;51.366;-0.222;2023-03-14T02:21:56;0.90;;;0.80;;
75744;SDS011;64359;51.366;-0.222;2023-03-14T02:23:02;1.00;;;0.90;;
75744;SDS011;64359;51.366;-0.222;2023-03-14T02:24:07;1.50;;;1.00;;
75744;SDS011;64359;51.366;-0.222;2023-03-14T02:25:19;1.00;;;0.70;;
75744;SDS011;64359;51.366;-0.222;2023-03-14T02:26:30;1.20;;;1.00;;
75744;SDS011;64359;51.366;-0.222;2023-03-14T02:27:38;1.50;;;1.00;;
75744;SDS011;64359;51.366;-0.222;2023-03-14T02:28:40;1.20;;;0.90;;
75744;SDS011;64359;51.366;-0.222;2023-03-14T02:29:45;0.90;;;0.60;;
75744;SDS011;64359;51.366;-0.222;2023-03-14T02:30:53;1.10;;;1.00;;
75744;SDS011;64359;51.366;-0.222;2023-03-14T02:31:55;1.00;;;0.80;;
75744;SDS011;64359;51.366;-0.222;2023-03-14T02:32:58;1.00;;;0.70;;
75744;SDS011;64359;51.366;-0.222;2023-03-14T02:34:04;2.10;;;1.00;;
75744;SDS011;64359;51.366;-0.222;2023-03-14T02:35:08;1.00;;;0.80;;
75744;SDS011;64359;51.366;-0.222;2023-03-14T02:36:13;1.20;;;1.10;;
75744;SDS011;64359;51.366;-0.222;2023-03-14T02:37:16;0.70;;;0.60;;
75744;SDS011;64359;51.366;-0.222;2023-03-14T02:38:20;1.30;;;1.10;;
75744;SDS011;64359;51.366;-0.222;2023-03-14T02:39:29;1.30;;;0.90;;
75744;SDS011;64359;51.366;-0.222;2023-03-14T02:40:37;1.50;;;1.40;;
75744;SDS011;64359;51.366;-0.222;2023-03-14T02:41:39;1.20;;;1.00;;
75744;SDS011;64359;51.366;-0.222;2023-03-14T02:42:43;0.70;;;0.70;;
75744;SDS011;64359;51.366;-0.222;2023-03-14T02:43:45;1.20;;;1.00;;
75744;SDS011;64359;51.366;-0.222;2023-03-14T02:44:52;1.50;;;1.00;;
75744;SDS011;64359;51.366;-0.222;2023-03-14T02:45:55;1.30;;;0.90;;
75744;SDS011;64359;51.366;-0.222;2023-03-14T02:46:58;1.00;;;1.00;;
75744;SDS011;64359;51.366;-0.222;2023-03-14T02:48:01;1.80;;;0.90;;
75744;SDS011;64359;51.366;-0.222;2023-03-14T02:49:07;1.00;;;0.90;;
75744;SDS011;64359;51.366;-0.222;2023-03-14T02:50:14;1.00;;;1.00;;
75744;SDS011;64359;51.366;-0.222;2023-03-14T02:51:20;1.10;;;0.80;;
75744;SDS011;64359;51.366;-0.222;2023-03-14T02:52:24;1.10;;;1.00;;
75744;SDS011;64359;51.366;-0.222;2023-03-14T02:53:28;1.00;;;0.70;;
75744;SDS011;64359;51.366;-0.222;2023-03-14T02:54:32;1.50;;;1.10;;
75744;SDS011;64359;51.366;-0.222;2023-03-14T02:55:34;1.40;;;0.60;;
75744;SDS011;64359;51.366;-0.222;2023-03-14T02:56:36;1.10;;;1.00;;
75744;SDS011;64359;51.366;-0.222;2023-03-14T02:57:39;1.00;;;1.00;;
75744;SDS011;64359;51.366;-0.222;2023-03-14T02:58:41;1.10;;;0.90;;
75744;SDS011;64359;51.366;-0.222;2023-03-14T02:59:43;0.70;;;0.60;;
75744;SDS011;64359;51.366;-0.222;2023-03-14T03:00:46;1.50;;;1.00;;
75744;SDS011;64359;51.366;-0.222;2023-03-14T03:01:48;0.70;;;0.60;;
75744;SDS011;64359;51.366;-0.222;2023-03-14T03:02:51;0.70;;;0.70;;
75744;SDS011;64359;51.366;-0.222;2023-03-14T03:04:55;0.70;;;0.50;;
75744;SDS011;64359;51.366;-0.222;2023-03-14T03:05:58;0.80;;;0.80;;
75744;SDS011;64359;51.366;-0.222;2023-03-14T03:07:01;1.10;;;0.80;;
75744;SDS011;64359;51.366;-0.222;2023-03-14T03:08:03;1.00;;;0.80;;
75744;SDS011;64359;51.366;-0.222;2023-03-14T03:09:06;0.90;;;0.90;;
75744;SDS011;64359;51.366;-0.222;2023-03-14T03:10:09;0.70;;;0.60;;
75744;SDS011;64359;51.366;-0.222;2023-03-14T03:11:12;0.50;;;0.50;;
75744;SDS011;64359;51.366;-0.222;2023-03-14T03:12:15;0.90;;;0.90;;
75744;SDS011;64359;51.366;-0.222;2023-03-14T03:13:17;1.20;;;1.10;;
75744;SDS011;64359;51.366;-0.222;2023-03-14T03:14:20;1.00;;;0.60;;
75744;SDS011;64359;51.366;-0.222;2023-03-14T03:15:22;0.70;;;0.70;;
75744;SDS011;64359;51.366;-0.222;2023-03-14T03:16:25;0.80;;;0.60;;
75744;SDS011;64359;51.366;-0.222;2023-03-14T03:17:27;0.60;;;0.50;;
75744;SDS011;64359;51.366;-0.222;2023-03-14T03:18:30;1.00;;;1.00;;
75744;SDS011;64359;51.366;-0.222;2023-03-14T03:19:33;0.80;;;0.80;;
75744;SDS011;64359;51.366;-0.222;2023-03-14T03:20:35;0.90;;;0.50;;
75744;SDS011;64359;51.366;-0.222;2023-03-14T03:21:38;0.70;;;0.70;;
75744;SDS011;64359;51.366;-0.222;2023-03-14T03:22:40;0.80;;;0.80;;
75744;SDS011;64359;51.366;-0.222;2023-03-14T03:23:42;0.80;;;0.40;;
75744;SDS011;64359;51.366;-0.222;2023-03-14T03:24:45;1.30;;;0.90;;
75744;SDS011;64359;51.366;-0.222;2023-03-14T03:25:48;0.80;;;0.50;;
75744;SDS011;64359;51.366;-0.222;2023-03-14T03:26:51;0.50;;;0.50;;
75744;SDS011;64359;51.366;-0.222;2023-03-14T03:27:53;0.70;;;0.50;;
75744;SDS011;64359;51.366;-0.222;2023-03-14T03:28:56;0.50;;;0.50;;
75744;SDS011;64359;51.366;-0.222;2023-03-14T03:29:58;0.80;;;0.80;;
75744;SDS011;64359;51.366;-0.222;2023-03-14T03:31:06;1.00;;;0.90;;
75744;SDS011;64359;51.366;-0.222;2023-03-14T03:32:10;0.90;;;0.50;;
75744;SDS011;64359;51.366;-0.222;2023-03-14T03:33:12;1.10;;;0.70;;
75744;SDS011;64359;51.366;-0.222;2023-03-14T03:34:15;0.80;;;0.80;;
75744;SDS011;64359;51.366;-0.222;2023-03-14T03:35:17;1.10;;;1.00;;
75744;SDS011;64359;51.366;-0.222;2023-03-14T03:36:21;0.30;;;0.30;;
75744;SDS011;64359;51.366;-0.222;2023-03-14T03:37:23;0.50;;;0.50;;
75744;SDS011;64359;51.366;-0.222;2023-03-14T03:38:26;1.00;;;0.90;;
75744;SDS011;64359;51.366;-0.222;2023-03-14T03:39:28;0.80;;;0.80;;
75744;SDS011;64359;51.366;-0.222;2023-03-14T03:40:30;0.70;;;0.40;;
75744;SDS011;64359;51.366;-0.222;2023-03-14T03:41:33;1.30;;;0.90;;
75744;SDS011;64359;51.366;-0.222;2023-03-14T03:42:35;0.80;;;0.80;;
75744;SDS011;64359;51.366;-0.222;2023-03-14T03:43:38;0.70;;;0.70;;
75744;SDS011;64359;51.366;-0.222;2023-03-14T03:44:40;0.70;;;0.70;;
75744;SDS011;64359;51.366;-0.222;2023-03-14T03:45:42;0.60;;;0.60;;
75744;SDS011;64359;51.366;-0.222;2023-03-14T03:46:44;0.60;;;0.60;;
75744;SDS011;64359;51.366;-0.222;2023-03-14T03:47:47;1.10;;;1.10;;
75744;SDS011;64359;51.366;-0.222;2023-03-14T03:48:49;1.00;;;0.90;;
75744;SDS011;64359;51.366;-0.222;2023-03-14T03:49:56;0.70;;;0.70;;
75744;SDS011;64359;51.366;-0.222;2023-03-14T03:50:58;0.50;;;0.50;;
75744;SDS011;64359;51.366;-0.222;2023-03-14T03:52:00;1.00;;;0.60;;
75744;SDS011;64359;51.366;-0.222;2023-03-14T03:53:03;0.70;;;0.70;;
75744;SDS011;64359;51.366;-0.222;2023-03-14T03:54:05;0.70;;;0.30;;
75744;SDS011;64359;51.366;-0.222;2023-03-14T03:55:08;1.00;;;1.00;;
75744;SDS011;64359;51.366;-0.222;2023-03-14T03:56:10;0.70;;;0.70;;
75744;SDS011;64359;51.366;-0.222;2023-03-14T03:57:13;0.60;;;0.50;;
75744;SDS011;64359;51.366;-0.222;2023-03-14T03:58:15;0.50;;;0.50;;
75744;SDS011;64359;51.366;-0.222;2023-03-14T03:59:17;0.70;;;0.70;;
75744;SDS011;64359;51.366;-0.222;2023-03-14T04:00:20;0.70;;;0.50;;
75744;SDS011;64359;51.366;-0.222;2023-03-14T04:01:22;0.40;;;0.40;;
75744;SDS011;64359;51.366;-0.222;2023-03-14T04:02:24;0.90;;;0.90;;
75744;SDS011;64359;51.366;-0.222;2023-03-14T04:03:27;0.90;;;0.40;;
75744;SDS011;64359;51.366;-0.222;2023-03-14T04:04:29;0.60;;;0.50;;
75744;SDS011;64359;51.366;-0.222;2023-03-14T04:05:31;1.30;;;1.20;;
75744;SDS011;64359;51.366;-0.222;2023-03-14T04:06:34;0.60;;;0.40;;
75744;SDS011;64359;51.366;-0.222;2023-03-14T04:07:37;0.40;;;0.40;;
75744;SDS011;64359;51.366;-0.222;2023-03-14T04:08:40;0.50;;;0.50;;
75744;SDS011;64359;51.366;-0.222;2023-03-14T04:09:42;0.70;;;0.70;;
75744;SDS011;64359;51.366;-0.222;2023-03-14T04:10:45;0.70;;;0.50;;
75744;SDS011;64359;51.366;-0.222;2023-03-14T04:11:47;0.90;;;0.90;;
75744;SDS011;64359;51.366;-0.222;2023-03-14T04:12:49;0.60;;;0.40;;
75744;SDS011;64359;51.366;-0.222;2023-03-14T04:13:51;0.50;;;0.50;;
75744;SDS011;64359;51.366;-0.222;2023-03-14T04:14:54;0.60;;;0.60;;
75744;SDS011;64359;51.366;-0.222;2023-03-14T04:15:56;0.50;;;0.50;;
75744;SDS011;64359;51.366;-0.222;2023-03-14T04:16:58;0.90;;;0.90;;
75744;SDS011;64359;51.366;-0.222;2023-03-14T04:18:00;1.10;;;1.00;;
75744;SDS011;64359;51.366;-0.222;2023-03-14T04:19:03;0.80;;;0.80;;
75744;SDS011;64359;51.366;-0.222;2023-03-14T04:20:06;0.70;;;0.70;;
75744;SDS011;64359;51.366;-0.222;2023-03-14T04:21:11;1.10;;;0.80;;
75744;SDS011;64359;51.366;-0.222;2023-03-14T04:22:14;0.70;;;0.70;;
75744;SDS011;64359;51.366;-0.222;2023-03-14T04:23:16;1.00;;;1.00;;
75744;SDS011;64359;51.366;-0.222;2023-03-14T04:24:18;1.40;;;0.70;;
75744;SDS011;64359;51.366;-0.222;2023-03-14T04:25:20;0.60;;;0.50;;
75744;SDS011;64359;51.366;-0.222;2023-03-14T04:26:23;0.80;;;0.80;;
75744;SDS011;64359;51.366;-0.222;2023-03-14T04:27:25;0.50;;;0.50;;
75744;SDS011;64359;51.366;-0.222;2023-03-14T04:28:27;0.30;;;0.30;;
75744;SDS011;64359;51.366;-0.222;2023-03-14T04:29:29;0.90;;;0.80;;
75744;SDS011;64359;51.366;-0.222;2023-03-14T04:30:32;0.50;;;0.50;;
75744;SDS011;64359;51.366;-0.222;2023-03-14T04:31:34;0.60;;;0.40;;
75744;SDS011;64359;51.366;-0.222;2023-03-14T04:32:36;1.30;;;0.50;;
75744;SDS011;64359;51.366;-0.222;2023-03-14T04:33:40;0.70;;;0.70;;
75744;SDS011;64359;51.366;-0.222;2023-03-14T04:34:43;0.50;;;0.50;;
75744;SDS011;64359;51.366;-0.222;2023-03-14T04:35:45;0.60;;;0.40;;
75744;SDS011;64359;51.366;-0.222;2023-03-14T04:36:48;1.00;;;0.90;;
75744;SDS011;64359;51.366;-0.222;2023-03-14T04:37:50;0.70;;;0.70;;
75744;SDS011;64359;51.366;-0.222;2023-03-14T04:38:52;0.30;;;0.30;;
75744;SDS011;64359;51.366;-0.222;2023-03-14T04:39:55;0.50;;;0.50;;
75744;SDS011;64359;51.366;-0.222;2023-03-14T04:40:57;1.00;;;0.70;;
75744;SDS011;64359;51.366;-0.222;2023-03-14T04:42:00;0.70;;;0.70;;
75744;SDS011;64359;51.366;-0.222;2023-03-14T04:43:02;0.60;;;0.60;;
75744;SDS011;64359;51.366;-0.222;2023-03-14T04:44:04;0.80;;;0.80;;
75744;SDS011;64359;51.366;-0.222;2023-03-14T04:45:07;0.80;;;0.60;;
75744;SDS011;64359;51.366;-0.222;2023-03-14T04:46:10;0.90;;;0.90;;
75744;SDS011;64359;51.366;-0.222;2023-03-14T04:47:13;0.80;;;0.80;;
75744;SDS011;64359;51.366;-0.222;2023-03-14T04:48:15;0.70;;;0.60;;
75744;SDS011;64359;51.366;-0.222;2023-03-14T04:49:17;0.40;;;0.40;;
75744;SDS011;64359;51.366;-0.222;2023-03-14T04:50:20;0.90;;;0.90;;
75744;SDS011;64359;51.366;-0.222;2023-03-14T04:51:22;1.00;;;0.70;;
75744;SDS011;64359;51.366;-0.222;2023-03-14T04:52:27;0.80;;;0.80;;
75744;SDS011;64359;51.366;-0.222;2023-03-14T04:53:30;1.00;;;0.80;;
75744;SDS011;64359;51.366;-0.222;2023-03-14T04:54:32;0.70;;;0.70;;
75744;SDS011;64359;51.366;-0.222;2023-03-14T04:55:34;0.80;;;0.40;;
75744;SDS011;64359;51.366;-0.222;2023-03-14T04:56:37;1.20;;;0.90;;
75744;SDS011;64359;51.366;-0.222;2023-03-14T04:57:39;0.60;;;0.50;;
75744;SDS011;64359;51.366;-0.222;2023-03-14T04:58:41;0.80;;;0.80;;
75744;SDS011;64359;51.366;-0.222;2023-03-14T04:59:44;0.70;;;0.40;;
75744;SDS011;64359;51.366;-0.222;2023-03-14T05:00:47;0.90;;;0.90;;
75744;SDS011;64359;51.366;-0.222;2023-03-14T05:01:50;0.80;;;0.70;;
75744;SDS011;64359;51.366;-0.222;2023-03-14T05:02:52;0.80;;;0.80;;
75744;SDS011;64359;51.366;-0.222;2023-03-14T05:03:54;0.80;;;0.80;;
75744;SDS011;64359;51.366;-0.222;2023-03-14T05:04:56;0.80;;;0.80;;
75744;SDS011;64359;51.366;-0.222;2023-03-14T05:05:58;0.70;;;0.70;;
75744;SDS011;64359;51.366;-0.222;2023-03-14T05:07:01;1.10;;;0.60;;
75744;SDS011;64359;51.366;-0.222;2023-03-14T05:08:03;0.70;;;0.70;;
75744;SDS011;64359;51.366;-0.222;2023-03-14T05:09:06;1.70;;;0.70;;
75744;SDS011;64359;51.366;-0.222;2023-03-14T05:10:09;1.10;;;0.40;;
75744;SDS011;64359;51.366;-0.222;2023-03-14T05:11:12;0.70;;;0.70;;
75744;SDS011;64359;51.366;-0.222;2023-03-14T05:12:14;1.10;;;0.60;;
75744;SDS011;64359;51.366;-0.222;2023-03-14T05:13:16;0.60;;;0.50;;
75744;SDS011;64359;51.366;-0.222;2023-03-14T05:14:19;1.50;;;1.00;;
75744;SDS011;64359;51.366;-0.222;2023-03-14T05:15:21;1.30;;;0.80;;
75744;SDS011;64359;51.366;-0.222;2023-03-14T05:16:24;1.00;;;0.50;;
75744;SDS011;64359;51.366;-0.222;2023-03-14T05:17:26;0.60;;;0.40;;
75744;SDS011;64359;51.366;-0.222;2023-03-14T05:18:28;0.80;;;0.80;;
75744;SDS011;64359;51.366;-0.222;2023-03-14T05:19:30;1.40;;;1.00;;
75744;SDS011;64359;51.366;-0.222;2023-03-14T05:20:33;1.10;;;0.60;;
75744;SDS011;64359;51.366;-0.222;2023-03-14T05:21:36;0.70;;;0.40;;
75744;SDS011;64359;51.366;-0.222;2023-03-14T05:22:38;0.40;;;0.40;;
75744;SDS011;64359;51.366;-0.222;2023-03-14T05:23:41;0.90;;;0.90;;
75744;SDS011;64359;51.366;-0.222;2023-03-14T05:24:43;0.80;;;0.80;;
75744;SDS011;64359;51.366;-0.222;2023-03-14T05:25:45;1.70;;;0.90;;
75744;SDS011;64359;51.366;-0.222;2023-03-14T05:26:48;1.20;;;1.20;;
75744;SDS011;64359;51.366;-0.222;2023-03-14T05:27:50;0.40;;;0.40;;
75744;SDS011;64359;51.366;-0.222;2023-03-14T05:28:55;0.80;;;0.70;;
75744;SDS011;64359;51.366;-0.222;2023-03-14T05:29:58;0.90;;;0.80;;
75744;SDS011;64359;51.366;-0.222;2023-03-14T05:31:00;1.20;;;1.00;;
75744;SDS011;64359;51.366;-0.222;2023-03-14T05:32:02;1.50;;;0.90;;
75744;SDS011;64359;51.366;-0.222;2023-03-14T05:33:04;0.80;;;0.80;;
75744;SDS011;64359;51.366;-0.222;2023-03-14T05:34:07;1.00;;;0.90;;
75744;SDS011;64359;51.366;-0.222;2023-03-14T05:35:09;0.50;;;0.50;;
75744;SDS011;64359;51.366;-0.222;2023-03-14T05:36:11;2.80;;;1.10;;
75744;SDS011;64359;51.366;-0.222;2023-03-14T05:37:14;1.30;;;0.50;;
75744;SDS011;64359;51.366;-0.222;2023-03-14T05:38:16;1.50;;;1.00;;
75744;SDS011;64359;51.366;-0.222;2023-03-14T05:39:19;0.60;;;0.40;;
75744;SDS011;64359;51.366;-0.222;2023-03-14T05:40:21;0.70;;;0.70;;
75744;SDS011;64359;51.366;-0.222;2023-03-14T05:41:23;0.80;;;0.80;;
75744;SDS011;64359;51.366;-0.222;2023-03-14T05:42:26;1.00;;;0.50;;
75744;SDS011;64359;51.366;-0.222;2023-03-14T05:43:28;0.60;;;0.50;;
75744;SDS011;64359;51.366;-0.222;2023-03-14T05:44:30;0.70;;;0.70;;
75744;SDS011;64359;51.366;-0.222;2023-03-14T05:45:32;0.70;;;0.70;;
75744;SDS011;64359;51.366;-0.222;2023-03-14T05:46:36;0.70;;;0.50;;
75744;SDS011;64359;51.366;-0.222;2023-03-14T05:47:38;1.30;;;0.70;;
75744;SDS011;64359;51.366;-0.222;2023-03-14T05:48:40;0.80;;;0.60;;
75744;SDS011;64359;51.366;-0.222;2023-03-14T05:49:43;0.60;;;0.60;;
75744;SDS011;64359;51.366;-0.222;2023-03-14T05:50:45;1.00;;;1.00;;
75744;SDS011;64359;51.366;-0.222;2023-03-14T05:51:47;0.40;;;0.40;;
75744;SDS011;64359;51.366;-0.222;2023-03-14T05:52:50;1.00;;;1.00;;
75744;SDS011;64359;51.366;-0.222;2023-03-14T05:53:52;1.40;;;0.80;;
75744;SDS011;64359;51.366;-0.222;2023-03-14T05:54:54;1.20;;;1.00;;
75744;SDS011;64359;51.366;-0.222;2023-03-14T05:55:56;2.20;;;0.70;;
75744;SDS011;64359;51.366;-0.222;2023-03-14T05:56:59;1.10;;;1.10;;
75744;SDS011;64359;51.366;-0.222;2023-03-14T05:58:01;1.30;;;0.70;;
75744;SDS011;64359;51.366;-0.222;2023-03-14T05:59:03;1.00;;;0.70;;
75744;SDS011;64359;51.366;-0.222;2023-03-14T06:00:09;1.00;;;0.90;;
75744;SDS011;64359;51.366;-0.222;2023-03-14T06:01:12;1.10;;;1.00;;
75744;SDS011;64359;51.366;-0.222;2023-03-14T06:02:15;1.20;;;0.80;;
75744;SDS011;64359;51.366;-0.222;2023-03-14T06:03:17;1.60;;;0.70;;
75744;SDS011;64359;51.366;-0.222;2023-03-14T06:04:19;1.40;;;0.50;;
75744;SDS011;64359;51.366;-0.222;2023-03-14T06:05:21;0.80;;;0.80;;
75744;SDS011;64359;51.366;-0.222;2023-03-14T06:06:24;0.90;;;0.90;;
75744;SDS011;64359;51.366;-0.222;2023-03-14T06:07:26;0.60;;;0.60;;
75744;SDS011;64359;51.366;-0.222;2023-03-14T06:08:28;1.30;;;0.90;;
75744;SDS011;64359;51.366;-0.222;2023-03-14T06:09:30;1.10;;;1.00;;
75744;SDS011;64359;51.366;-0.222;2023-03-14T06:10:34;0.90;;;0.60;;
75744;SDS011;64359;51.366;-0.222;2023-03-14T06:11:36;1.00;;;0.90;;
75744;SDS011;64359;51.366;-0.222;2023-03-14T06:12:39;2.10;;;0.80;;
75744;SDS011;64359;51.366;-0.222;2023-03-14T06:13:41;0.80;;;0.80;;
75744;SDS011;64359;51.366;-0.222;2023-03-14T06:14:43;1.80;;;1.20;;
75744;SDS011;64359;51.366;-0.222;2023-03-14T06:15:46;0.50;;;0.50;;
75744;SDS011;64359;51.366;-0.222;2023-03-14T06:16:48;0.80;;;0.60;;
75744;SDS011;64359;51.366;-0.222;2023-03-14T06:17:51;2.10;;;0.90;;
75744;SDS011;64359;51.366;-0.222;2023-03-14T06:18:56;1.40;;;0.90;;
75744;SDS011;64359;51.366;-0.222;2023-03-14T06:19:58;1.10;;;0.60;;